createdAt,value
2019-02-05T00:01:29.068Z,30.00
2019-02-05T00:03:07.016Z,29.20
2019-02-05T00:04:41.514Z,30.53
2019-02-05T00:06:15.955Z,26.17
2019-02-05T00:07:50.309Z,28.37
2019-02-05T00:09:24.700Z,39.10
2019-02-05T00:10:59.064Z,43.07
2019-02-05T00:12:33.497Z,39.70
2019-02-05T00:14:07.852Z,39.07
2019-02-05T00:15:42.247Z,49.43
2019-02-05T00:17:16.611Z,52.23
2019-02-05T00:18:51.688Z,45.87
2019-02-05T00:20:27.657Z,41.03
2019-02-05T00:22:02.049Z,38.80
2019-02-05T00:23:36.405Z,40.50
2019-02-05T00:25:10.781Z,32.27
2019-02-05T00:26:45.137Z,32.97
2019-02-05T00:28:19.456Z,37.83
2019-02-05T00:29:53.881Z,35.80
2019-02-05T00:31:28.249Z,35.73
2019-02-05T00:33:04.297Z,32.87
2019-02-05T00:34:38.669Z,27.90
2019-02-05T00:36:13.065Z,26.67
2019-02-05T00:37:47.432Z,28.63
2019-02-05T00:39:21.789Z,27.57
2019-02-05T00:40:56.173Z,26.80
2019-02-05T00:42:30.567Z,26.60
2019-02-05T00:44:04.935Z,28.17
2019-02-05T00:45:39.491Z,24.97
2019-02-05T00:47:13.845Z,28.50
2019-02-05T00:48:48.233Z,32.20
2019-02-05T00:50:22.599Z,31.67
2019-02-05T00:51:58.469Z,26.77
2019-02-05T00:53:32.830Z,27.87
2019-02-05T00:55:10.697Z,26.93
2019-02-05T00:56:45.056Z,26.97
2019-02-05T00:58:19.419Z,34.50
2019-02-05T00:59:54.014Z,30.03
2019-02-05T01:01:28.381Z,32.57
2019-02-05T01:03:02.777Z,32.07
2019-02-05T01:04:37.177Z,41.40
2019-02-05T01:06:11.556Z,40.60
2019-02-05T01:07:45.996Z,44.37
2019-02-05T01:09:20.477Z,49.77
2019-02-05T01:10:56.640Z,40.93
2019-02-05T01:12:31.038Z,37.87
2019-02-05T01:14:05.403Z,39.43
2019-02-05T01:15:39.761Z,42.37
2019-02-05T01:17:14.124Z,37.90
2019-02-05T01:18:48.520Z,31.60
2019-02-05T01:20:23.291Z,28.93
2019-02-05T01:21:57.661Z,29.80
2019-02-05T01:23:32.216Z,29.93
2019-02-05T01:25:08.246Z,30.20
2019-02-05T01:26:42.707Z,29.30
2019-02-05T01:28:17.065Z,31.33
2019-02-05T01:29:52.940Z,34.13
2019-02-05T01:31:27.706Z,32.93
2019-02-05T01:33:02.074Z,32.17
2019-02-05T01:34:36.445Z,34.23
2019-02-05T01:36:12.323Z,33.10
2019-02-05T01:37:46.685Z,33.90
2019-02-05T01:39:21.074Z,39.67
2019-02-05T01:40:55.433Z,36.23
2019-02-05T01:42:29.800Z,33.37
2019-02-05T01:44:04.612Z,34.17
2019-02-05T01:45:38.986Z,36.50
2019-02-05T01:47:13.349Z,40.47
2019-02-05T01:48:47.712Z,42.53
2019-02-05T01:50:24.676Z,42.30
2019-02-05T01:51:59.061Z,44.70
2019-02-05T01:53:33.416Z,43.83
2019-02-05T01:55:10.013Z,41.03
2019-02-05T01:56:44.675Z,40.30
2019-02-05T01:58:19.074Z,32.73
2019-02-05T01:59:53.428Z,25.40
2019-02-05T02:01:27.856Z,28.23
2019-02-05T02:03:02.295Z,25.60
2019-02-05T02:04:36.696Z,23.50
2019-02-05T02:06:30.499Z,23.87
2019-02-05T02:08:04.981Z,21.97
2019-02-05T02:09:39.357Z,23.37
2019-02-05T02:11:13.714Z,22.97
2019-02-05T02:12:48.476Z,20.60
2019-02-05T02:14:22.860Z,22.93
2019-02-05T02:15:57.385Z,24.53
2019-02-05T02:17:31.748Z,25.57
2019-02-05T02:19:06.245Z,26.90
2019-02-05T02:20:40.674Z,27.30
2019-02-05T02:22:15.069Z,29.20
2019-02-05T02:23:49.435Z,27.90
2019-02-05T02:25:23.805Z,23.80
2019-02-05T02:26:58.233Z,23.53
2019-02-05T02:28:32.619Z,24.13
2019-02-05T02:30:21.994Z,25.60
2019-02-05T02:31:56.363Z,26.37
2019-02-05T02:33:31.019Z,33.77
2019-02-05T02:35:06.080Z,32.77
2019-02-05T02:36:40.437Z,28.17
2019-02-05T02:38:14.803Z,31.17
2019-02-05T02:39:49.241Z,33.87
2019-02-05T02:41:23.605Z,33.00
2019-02-05T02:42:57.966Z,27.53
2019-02-05T02:44:32.337Z,30.63
2019-02-05T02:46:07.203Z,28.57
2019-02-05T02:47:41.636Z,25.70
2019-02-05T02:49:16.012Z,28.33
2019-02-05T02:50:50.378Z,33.40
2019-02-05T02:52:24.738Z,37.80
2019-02-05T02:53:59.122Z,35.63
2019-02-05T02:55:33.476Z,28.57
2019-02-05T02:57:07.846Z,25.63
2019-02-05T02:58:42.215Z,24.37
2019-02-05T03:00:18.846Z,27.20
2019-02-05T03:01:53.203Z,30.17
2019-02-05T03:03:27.865Z,29.07
2019-02-05T03:05:02.258Z,25.73
2019-02-05T03:06:36.682Z,27.57
2019-02-05T03:08:12.577Z,23.37
2019-02-05T03:09:46.937Z,25.77
2019-02-05T03:11:21.321Z,27.40
2019-02-05T03:12:57.535Z,19.90
2019-02-05T03:14:31.909Z,19.43
2019-02-05T03:16:06.572Z,24.20
2019-02-05T03:17:41.050Z,26.50
2019-02-05T03:19:15.410Z,26.53
2019-02-05T03:20:50.077Z,24.40
2019-02-05T03:22:24.445Z,25.80
2019-02-05T03:23:58.805Z,29.77
2019-02-05T03:25:33.188Z,25.47
2019-02-05T03:27:17.210Z,21.77
2019-02-05T03:28:43.597Z,21.37
2019-02-05T03:30:20.536Z,21.70
2019-02-05T03:31:54.911Z,23.23
2019-02-05T03:33:29.268Z,29.13
2019-02-05T03:35:05.063Z,29.93
2019-02-05T03:36:39.913Z,20.40
2019-02-05T03:38:14.579Z,19.77
2019-02-05T03:39:48.956Z,21.27
2019-02-05T03:41:23.310Z,24.47
2019-02-05T03:42:57.744Z,21.13
2019-02-05T03:44:32.097Z,24.73
2019-02-05T03:46:06.466Z,23.60
2019-02-05T03:47:40.849Z,23.43
2019-02-05T03:49:15.251Z,23.43
2019-02-05T03:50:51.665Z,25.17
2019-02-05T03:52:26.965Z,23.40
2019-02-05T03:54:28.174Z,22.97
2019-02-05T03:56:05.794Z,23.13
2019-02-05T03:57:49.402Z,21.70
2019-02-05T03:59:29.981Z,23.27
2019-02-05T04:01:13.349Z,22.30
2019-02-05T04:02:53.826Z,21.40
2019-02-05T04:04:31.445Z,21.40
2019-02-05T04:06:24.345Z,23.87
2019-02-05T04:08:18.302Z,24.43
2019-02-05T04:10:01.687Z,21.13
2019-02-05T04:12:01.699Z,23.27
2019-02-05T04:13:47.336Z,21.10
2019-02-05T04:15:36.818Z,20.87
2019-02-05T04:17:23.696Z,19.17
2019-02-05T04:19:10.069Z,20.90
2019-02-05T04:20:53.459Z,22.20
2019-02-05T04:22:52.528Z,21.80
2019-02-05T04:24:53.216Z,20.30
2019-02-05T04:26:33.788Z,20.93
2019-02-05T04:28:19.863Z,21.50
2019-02-05T04:30:00.088Z,17.43
2019-02-05T04:31:43.188Z,20.17
2019-02-05T04:33:37.473Z,19.70
2019-02-05T04:35:20.607Z,21.27
2019-02-05T04:37:06.917Z,19.17
2019-02-05T04:38:47.250Z,19.33
2019-02-05T04:40:30.688Z,17.97
2019-02-05T04:42:23.105Z,18.27
2019-02-05T04:44:15.793Z,17.17
2019-02-05T04:45:56.128Z,20.68
2019-02-05T04:47:36.821Z,18.23
2019-02-05T04:49:46.046Z,19.93
2019-02-05T04:51:41.424Z,21.33
2019-02-05T04:53:24.942Z,20.50
2019-02-05T04:55:14.738Z,19.80
2019-02-05T04:57:07.199Z,21.23
2019-02-05T04:58:47.759Z,20.87
2019-02-05T05:00:40.027Z,21.60
2019-02-05T05:02:47.225Z,21.10
2019-02-05T05:04:27.568Z,18.43
2019-02-05T05:06:23.571Z,19.50
2019-02-05T05:08:06.925Z,20.10
2019-02-05T05:09:58.146Z,20.87
2019-02-05T05:11:32.501Z,19.97
2019-02-05T05:13:06.872Z,21.70
2019-02-05T05:14:41.238Z,21.13
2019-02-05T05:16:15.645Z,21.57
2019-02-05T05:17:49.997Z,20.90
2019-02-05T05:19:24.373Z,21.77
2019-02-05T05:20:58.734Z,25.10
2019-02-05T05:22:33.125Z,24.63
2019-02-05T05:24:07.492Z,22.50
2019-02-05T05:25:41.854Z,19.97
2019-02-05T05:27:17.052Z,19.70
2019-02-05T05:28:51.762Z,23.50
2019-02-05T05:30:26.116Z,17.70
2019-02-05T05:32:00.474Z,19.57
2019-02-05T05:33:34.834Z,19.80
2019-02-05T05:35:09.974Z,20.87
2019-02-05T05:36:49.299Z,21.70
2019-02-05T05:38:23.653Z,21.10
2019-02-05T05:39:58.015Z,22.50
2019-02-05T05:41:32.685Z,19.43
2019-02-05T05:43:08.165Z,21.70
2019-02-05T05:44:42.624Z,20.40
2019-02-05T05:46:17.498Z,21.85
2019-02-05T05:47:51.861Z,20.07
2019-02-05T05:49:26.249Z,22.10
2019-02-05T05:51:00.630Z,21.97
2019-02-05T05:52:34.989Z,22.33
2019-02-05T05:54:09.364Z,23.27
2019-02-05T05:55:43.760Z,22.80
2019-02-05T05:57:18.753Z,22.50
2019-02-05T05:58:55.013Z,26.13
2019-02-05T06:00:29.750Z,26.07
2019-02-05T06:02:04.192Z,24.52
2019-02-05T06:03:38.593Z,28.60
2019-02-05T06:05:14.203Z,27.37
2019-02-05T06:06:50.109Z,26.77
2019-02-05T06:08:24.484Z,27.85
2019-02-05T06:09:58.849Z,26.25
2019-02-05T06:11:33.519Z,25.67
2019-02-05T06:13:07.901Z,29.20
2019-02-05T06:14:42.272Z,24.60
2019-02-05T06:16:16.633Z,25.53
2019-02-05T06:17:51.073Z,30.33
2019-02-05T06:19:25.532Z,31.37
2019-02-05T06:21:01.507Z,28.37
2019-02-05T06:22:35.881Z,30.60
2019-02-05T06:24:11.763Z,27.20
2019-02-05T06:25:46.126Z,31.43
2019-02-05T06:27:20.493Z,31.30
2019-02-05T06:28:55.272Z,30.97
2019-02-05T06:30:29.631Z,33.27
2019-02-05T06:32:03.994Z,28.43
2019-02-05T06:33:38.375Z,24.57
2019-02-05T06:35:13.001Z,21.97
2019-02-05T06:36:47.413Z,29.57
2019-02-05T06:38:21.769Z,29.77
2019-02-05T06:39:56.142Z,29.97
2019-02-05T06:41:30.514Z,26.87
2019-02-05T06:43:04.895Z,29.63
2019-02-05T06:44:39.261Z,28.20
2019-02-05T06:46:14.113Z,32.80
2019-02-05T06:47:48.469Z,31.73
2019-02-05T06:49:22.841Z,33.70
2019-02-05T06:50:57.413Z,21.60
2019-02-05T06:52:31.776Z,30.57
2019-02-05T06:54:06.137Z,26.60
2019-02-05T06:55:40.505Z,26.50
2019-02-05T06:57:14.869Z,30.23
2019-02-05T06:58:49.236Z,27.73
2019-02-05T07:00:24.198Z,28.77
2019-02-05T07:01:58.584Z,35.37
2019-02-05T07:03:33.259Z,32.17
2019-02-05T07:05:11.667Z,31.47
2019-02-05T07:06:46.046Z,33.77
2019-02-05T07:08:20.501Z,35.07
2019-02-05T07:09:54.861Z,32.67
2019-02-05T07:11:29.220Z,25.07
2019-02-05T07:13:03.604Z,31.00
2019-02-05T07:14:38.001Z,32.17
2019-02-05T07:16:12.691Z,30.77
2019-02-05T07:17:49.698Z,26.50
2019-02-05T07:19:24.654Z,27.57
2019-02-05T07:20:59.044Z,30.67
2019-02-05T07:22:34.917Z,33.30
2019-02-05T07:24:09.294Z,31.85
2019-02-05T07:25:43.701Z,29.77
2019-02-05T07:27:19.616Z,29.52
2019-02-05T07:28:58.443Z,34.53
2019-02-05T07:30:30.368Z,32.77
2019-02-05T07:32:04.733Z,34.07
2019-02-05T07:33:39.162Z,33.80
2019-02-05T07:35:14.145Z,32.83
2019-02-05T07:36:48.518Z,34.27
2019-02-05T07:38:22.966Z,32.87
2019-02-05T07:39:57.326Z,32.90
2019-02-05T07:41:32.717Z,32.93
2019-02-05T07:43:07.074Z,34.20
2019-02-05T07:44:41.501Z,37.50
2019-02-05T07:46:15.901Z,36.43
2019-02-05T07:47:50.346Z,36.53
2019-02-05T07:49:24.709Z,44.83
2019-02-05T07:51:00.781Z,43.60
2019-02-05T07:52:35.177Z,48.53
2019-02-05T07:54:09.539Z,40.77
2019-02-05T07:55:44.133Z,38.73
2019-02-05T07:57:18.505Z,34.93
2019-02-05T07:58:52.910Z,30.13
2019-02-05T08:00:28.842Z,31.43
2019-02-05T08:02:03.221Z,34.83
2019-02-05T08:03:37.654Z,28.77
2019-02-05T08:05:20.748Z,34.17
2019-02-05T08:06:55.125Z,33.37
2019-02-05T08:08:29.696Z,34.27
2019-02-05T08:10:06.644Z,30.70
2019-02-05T08:11:41.517Z,38.60
2019-02-05T08:13:16.012Z,30.43
2019-02-05T08:14:50.369Z,26.67
2019-02-05T08:16:24.730Z,29.17
2019-02-05T08:17:59.112Z,29.20
2019-02-05T08:19:33.480Z,31.70
2019-02-05T08:21:07.851Z,30.00
2019-02-05T08:22:42.211Z,33.63
2019-02-05T08:24:16.652Z,33.27
2019-02-05T08:25:51.033Z,40.23
2019-02-05T08:27:25.437Z,39.67
2019-02-05T08:28:59.957Z,31.07
2019-02-05T08:30:43.760Z,24.67
2019-02-05T08:32:18.209Z,24.40
2019-02-05T08:33:52.590Z,40.30
2019-02-05T08:35:27.139Z,38.03
2019-02-05T08:37:01.485Z,34.50
2019-02-05T08:38:35.849Z,34.70
2019-02-05T08:40:18.837Z,26.33
2019-02-05T08:41:53.270Z,27.30
2019-02-05T08:43:27.625Z,23.73
2019-02-05T08:45:01.992Z,23.13
2019-02-05T08:46:36.349Z,26.97
2019-02-05T08:48:12.440Z,29.00
2019-02-05T08:49:46.792Z,29.40
2019-02-05T08:51:21.165Z,25.17
2019-02-05T08:52:55.520Z,25.50
2019-02-05T08:54:29.880Z,28.77
2019-02-05T08:56:04.557Z,29.63
2019-02-05T08:57:38.921Z,31.07
2019-02-05T08:59:13.264Z,29.23
2019-02-05T09:00:47.662Z,29.27
2019-02-05T09:02:22.040Z,26.53
2019-02-05T09:03:56.412Z,28.70
2019-02-05T09:05:30.776Z,27.43
2019-02-05T09:07:25.291Z,28.40
2019-02-05T09:08:50.356Z,26.23
2019-02-05T09:10:38.963Z,30.10
2019-02-05T09:12:13.524Z,27.90
2019-02-05T09:13:47.877Z,28.30
2019-02-05T09:15:29.051Z,28.03
2019-02-05T09:16:58.214Z,25.80
2019-02-05T09:18:32.569Z,27.83
2019-02-05T09:20:12.902Z,23.53
2019-02-05T09:21:47.353Z,29.73
2019-02-05T09:23:23.223Z,29.13
2019-02-05T09:24:57.573Z,32.00
2019-02-05T09:26:31.925Z,38.50
2019-02-05T09:28:06.289Z,36.77
2019-02-05T09:29:40.929Z,29.43
2019-02-05T09:31:15.332Z,26.13
2019-02-05T09:32:51.045Z,29.27
2019-02-05T09:34:25.388Z,27.87
2019-02-05T09:35:59.743Z,28.67
2019-02-05T09:37:35.197Z,23.50
2019-02-05T09:39:09.557Z,21.03
2019-02-05T09:40:43.921Z,26.63
2019-02-05T09:42:18.469Z,26.37
2019-02-05T09:43:52.834Z,25.73
2019-02-05T09:45:28.699Z,27.63
2019-02-05T09:47:03.280Z,27.63
2019-02-05T09:48:37.704Z,27.90
2019-02-05T09:50:16.625Z,29.07
2019-02-05T09:51:51.020Z,30.47
2019-02-05T09:53:25.352Z,29.67
2019-02-05T09:54:59.700Z,30.23
2019-02-05T09:56:34.060Z,28.50
2019-02-05T09:58:08.509Z,26.33
2019-02-05T09:59:45.413Z,30.90
2019-02-05T10:01:19.258Z,29.23
2019-02-05T10:02:53.616Z,28.40
2019-02-05T10:04:28.053Z,35.17
2019-02-05T10:06:02.462Z,31.77
2019-02-05T10:07:36.829Z,34.83
2019-02-05T10:09:11.181Z,36.27
2019-02-05T10:10:45.605Z,33.20
2019-02-05T10:12:19.957Z,29.70
2019-02-05T10:13:54.394Z,29.50
2019-02-05T10:15:33.752Z,36.53
2019-02-05T10:17:08.336Z,42.00
2019-02-05T10:18:45.752Z,32.87
2019-02-05T10:20:18.785Z,32.77
2019-02-05T10:21:53.177Z,33.07
2019-02-05T10:23:27.809Z,30.33
2019-02-05T10:25:02.164Z,34.43
2019-02-05T10:26:36.553Z,33.37
2019-02-05T10:28:12.668Z,32.40
2019-02-05T10:29:57.694Z,37.63
2019-02-05T10:31:22.873Z,34.33
2019-02-05T10:32:57.303Z,37.13
2019-02-05T10:34:34.275Z,37.77
2019-02-05T10:36:07.796Z,38.80
2019-02-05T10:37:42.152Z,36.13
2019-02-05T10:39:16.707Z,32.37
2019-02-05T10:40:52.576Z,34.07
2019-02-05T10:42:27.297Z,31.70
2019-02-05T10:44:01.662Z,35.40
2019-02-05T10:45:36.153Z,36.43
2019-02-05T10:47:10.809Z,40.47
2019-02-05T10:48:45.173Z,35.40
2019-02-05T10:50:21.106Z,36.97
2019-02-05T10:51:55.496Z,37.50
2019-02-05T10:53:29.922Z,35.80
2019-02-05T10:55:08.898Z,32.93
2019-02-05T10:56:43.248Z,29.07
2019-02-05T10:58:17.636Z,34.20
2019-02-05T10:59:54.337Z,32.57
2019-02-05T11:01:28.284Z,35.90
2019-02-05T11:03:05.161Z,30.03
2019-02-05T11:04:39.706Z,32.30
2019-02-05T11:06:14.049Z,40.43
2019-02-05T11:07:48.404Z,40.27
2019-02-05T11:09:22.765Z,43.60
2019-02-05T11:10:57.144Z,36.67
2019-02-05T11:12:31.510Z,34.27
2019-02-05T11:14:05.853Z,30.37
2019-02-05T11:15:40.219Z,31.73
2019-02-05T11:17:14.866Z,28.07
2019-02-05T11:18:50.757Z,37.97
2019-02-05T11:20:26.753Z,49.50
2019-02-05T11:22:01.121Z,35.03
2019-02-05T11:23:35.476Z,34.60
2019-02-05T11:25:09.902Z,37.90
2019-02-05T11:26:44.257Z,24.63
2019-02-05T11:28:18.616Z,47.00
2019-02-05T11:29:52.965Z,42.70
2019-02-05T11:31:27.432Z,36.20
2019-02-05T11:33:01.793Z,34.93
2019-02-05T11:34:36.549Z,40.77
2019-02-05T11:36:10.901Z,37.00
2019-02-05T11:37:45.285Z,36.20
2019-02-05T11:39:19.633Z,20.90
2019-02-05T11:40:54.169Z,27.20
2019-02-05T11:42:28.520Z,31.13
2019-02-05T11:44:04.854Z,24.23
2019-02-05T11:45:38.885Z,27.43
2019-02-05T11:47:13.241Z,24.37
2019-02-05T11:48:47.602Z,28.17
2019-02-05T11:50:23.660Z,25.57
2019-02-05T11:51:58.418Z,23.50
2019-02-05T11:53:32.940Z,24.57
2019-02-05T11:55:10.393Z,26.47
2019-02-05T11:56:44.816Z,28.90
2019-02-05T11:58:19.159Z,28.40
2019-02-05T11:59:53.513Z,27.70
2019-02-05T12:01:38.327Z,28.17
2019-02-05T12:03:05.021Z,27.90
2019-02-05T12:04:39.687Z,30.87
2019-02-05T12:06:14.032Z,31.03
2019-02-05T12:07:48.396Z,29.70
2019-02-05T12:09:23.322Z,27.17
2019-02-05T12:10:57.680Z,25.70
2019-02-05T12:12:32.082Z,22.30
2019-02-05T12:14:06.444Z,27.87
2019-02-05T12:15:40.805Z,27.77
2019-02-05T12:17:15.172Z,31.13
2019-02-05T12:18:49.521Z,31.50
2019-02-05T12:20:23.920Z,25.97
2019-02-05T12:21:59.909Z,28.43
2019-02-05T12:23:34.273Z,27.77
2019-02-05T12:25:20.413Z,33.50
2019-02-05T12:26:54.793Z,27.07
2019-02-05T12:28:29.314Z,28.27
2019-02-05T12:30:05.572Z,28.57
2019-02-05T12:31:39.939Z,28.70
2019-02-05T12:33:14.290Z,29.50
2019-02-05T12:34:48.962Z,29.17
2019-02-05T12:36:23.450Z,28.67
2019-02-05T12:37:57.818Z,31.43
2019-02-05T12:39:32.301Z,30.03
2019-02-05T12:41:06.653Z,28.93
2019-02-05T12:42:41.073Z,21.63
2019-02-05T12:44:15.545Z,22.97
2019-02-05T12:45:50.382Z,26.90
2019-02-05T12:47:24.800Z,23.43
2019-02-05T12:48:59.165Z,26.87
2019-02-05T12:50:36.157Z,26.13
2019-02-05T12:52:10.813Z,25.83
2019-02-05T12:53:45.192Z,25.60
2019-02-05T12:55:19.537Z,32.30
2019-02-05T12:56:53.897Z,26.90
2019-02-05T12:58:31.293Z,26.83
2019-02-05T13:00:26.627Z,28.33
2019-02-05T13:02:01.041Z,29.30
2019-02-05T13:03:35.394Z,26.70
2019-02-05T13:05:09.820Z,28.57
2019-02-05T13:06:45.713Z,27.93
2019-02-05T13:08:20.006Z,27.67
2019-02-05T13:09:57.510Z,27.80
2019-02-05T13:11:31.879Z,26.70
2019-02-05T13:13:07.197Z,27.13
2019-02-05T13:14:41.561Z,25.80
2019-02-05T13:16:16.313Z,25.23
2019-02-05T13:17:50.669Z,26.17
2019-02-05T13:19:25.045Z,24.60
2019-02-05T13:20:59.405Z,27.27
2019-02-05T13:22:33.770Z,27.07
2019-02-05T13:24:08.132Z,24.53
2019-02-05T13:25:42.520Z,25.80
2019-02-05T13:27:16.947Z,25.37
2019-02-05T13:28:51.316Z,26.13
2019-02-05T13:30:27.680Z,26.90
2019-02-05T13:32:02.124Z,26.87
2019-02-05T13:33:36.514Z,25.47
2019-02-05T13:35:11.332Z,27.00
2019-02-05T13:36:45.691Z,30.27
2019-02-05T13:38:20.043Z,29.00
2019-02-05T13:39:54.412Z,26.03
2019-02-05T13:41:29.353Z,24.00
2019-02-05T13:43:03.973Z,28.93
2019-02-05T13:44:38.329Z,29.03
2019-02-05T13:46:14.332Z,28.23
2019-02-05T13:47:48.689Z,45.47
2019-02-05T13:49:23.081Z,48.70
2019-02-05T13:50:57.442Z,84.07
2019-02-05T13:52:31.730Z,61.33
2019-02-05T13:54:07.241Z,44.97
2019-02-05T13:55:42.440Z,62.80
2019-02-05T13:57:16.901Z,40.07
2019-02-05T13:58:51.257Z,46.77
2019-02-05T14:00:40.269Z,39.60
2019-02-05T14:02:16.457Z,33.63
2019-02-05T14:03:50.813Z,39.37
2019-02-05T14:05:25.169Z,38.03
2019-02-05T14:06:59.532Z,39.07
2019-02-05T14:08:33.920Z,37.07
2019-02-05T14:10:14.061Z,31.97
2019-02-05T14:11:48.420Z,35.60
2019-02-05T14:13:22.789Z,39.60
2019-02-05T14:14:57.146Z,38.77
2019-02-05T14:16:31.505Z,38.73
2019-02-05T14:18:06.534Z,28.23
2019-02-05T14:19:40.912Z,21.93
2019-02-05T14:21:15.270Z,23.77
2019-02-05T14:22:49.625Z,27.70
2019-02-05T14:24:24.018Z,24.50
2019-02-05T14:25:59.703Z,24.63
2019-02-05T14:27:35.692Z,29.60
2019-02-05T14:29:10.045Z,26.90
2019-02-05T14:30:49.828Z,27.00
2019-02-05T14:32:24.182Z,28.50
2019-02-05T14:33:58.573Z,28.43
2019-02-05T14:35:32.948Z,33.37
2019-02-05T14:37:07.321Z,36.37
2019-02-05T14:38:41.664Z,32.33
2019-02-05T14:40:20.478Z,34.40
2019-02-05T14:41:54.840Z,32.37
2019-02-05T14:43:30.705Z,32.97
2019-02-05T14:45:08.494Z,31.03
2019-02-05T14:46:43.308Z,33.80
2019-02-05T14:48:19.484Z,39.07
2019-02-05T14:49:53.765Z,40.60
2019-02-05T14:51:28.129Z,35.83
2019-02-05T14:53:02.608Z,30.07
2019-02-05T14:54:36.956Z,33.47
2019-02-05T14:56:11.369Z,29.87
2019-02-05T14:57:45.646Z,24.67
2019-02-05T14:59:20.037Z,27.83
2019-02-05T15:00:54.598Z,27.17
2019-02-05T15:02:28.951Z,27.97
2019-02-05T15:04:05.378Z,30.73
2019-02-05T15:05:40.158Z,33.67
2019-02-05T15:07:14.555Z,60.77
2019-02-05T15:08:48.913Z,65.43
2019-02-05T15:10:23.271Z,51.50
2019-02-05T15:11:57.653Z,43.93
2019-02-05T15:13:32.209Z,36.47
2019-02-05T15:15:09.828Z,35.83
2019-02-05T15:16:44.168Z,38.37
2019-02-05T15:18:18.480Z,34.27
2019-02-05T15:19:52.829Z,30.03
2019-02-05T15:21:27.135Z,34.07
2019-02-05T15:23:01.662Z,32.40
2019-02-05T15:24:38.050Z,33.37
2019-02-05T15:26:11.996Z,32.90
2019-02-05T15:27:46.365Z,35.80
2019-02-05T15:29:20.727Z,37.80
2019-02-05T15:30:55.081Z,36.73
2019-02-05T15:32:49.365Z,39.30
2019-02-05T15:34:25.233Z,39.07
2019-02-05T15:36:04.277Z,38.00
2019-02-05T15:37:38.732Z,43.03
2019-02-05T15:39:13.153Z,42.47
2019-02-05T15:40:47.505Z,45.37
2019-02-05T15:42:21.864Z,44.87
2019-02-05T15:44:00.522Z,46.67
2019-02-05T15:45:33.777Z,45.83
2019-02-05T15:47:08.130Z,46.87
2019-02-05T15:48:42.493Z,50.83
2019-02-05T15:50:16.849Z,50.37
2019-02-05T15:51:51.210Z,51.73
2019-02-05T15:53:25.566Z,50.57
2019-02-05T15:54:59.955Z,54.63
2019-02-05T15:56:34.313Z,53.77
2019-02-05T15:58:10.180Z,56.23
2019-02-05T15:59:44.541Z,64.90
2019-02-05T16:01:20.480Z,67.07
2019-02-05T16:02:54.833Z,61.40
2019-02-05T16:04:29.212Z,59.57
2019-02-05T16:06:03.575Z,63.60
2019-02-05T16:07:37.969Z,62.47
2019-02-05T16:09:12.345Z,62.40
2019-02-05T16:10:46.739Z,61.87
2019-02-05T16:12:21.754Z,65.03
2019-02-05T16:13:56.263Z,67.30
2019-02-05T16:15:31.121Z,82.87
2019-02-05T16:17:05.519Z,85.17
2019-02-05T16:18:39.877Z,81.83
2019-02-05T16:20:18.049Z,87.57
2019-02-05T16:21:52.421Z,111.17
2019-02-05T16:23:26.827Z,118.50
2019-02-05T16:25:01.191Z,100.87
2019-02-05T16:26:35.569Z,87.43
2019-02-05T16:28:10.145Z,75.33
2019-02-05T16:29:44.516Z,80.63
2019-02-05T16:31:18.881Z,81.00
2019-02-05T16:32:53.291Z,102.53
2019-02-05T16:34:28.126Z,79.70
2019-02-05T16:36:02.484Z,75.60
2019-02-05T16:37:36.852Z,78.00
2019-02-05T16:39:11.321Z,81.77
2019-02-05T16:40:46.273Z,91.30
2019-02-05T16:42:20.644Z,93.00
2019-02-05T16:43:55.021Z,91.50
2019-02-05T16:45:30.895Z,85.37
2019-02-05T16:47:05.259Z,82.80
2019-02-05T16:48:39.661Z,82.90
2019-02-05T16:50:16.820Z,88.03
2019-02-05T16:51:51.196Z,95.17
2019-02-05T16:53:25.965Z,101.33
2019-02-05T16:55:00.594Z,95.13
2019-02-05T16:56:34.961Z,89.73
2019-02-05T16:58:09.329Z,99.30
2019-02-05T16:59:43.704Z,89.50
2019-02-05T17:01:18.105Z,88.70
2019-02-05T17:02:52.646Z,107.83
2019-02-05T17:04:27.034Z,108.67
2019-02-05T17:06:01.472Z,105.93
2019-02-05T17:07:36.209Z,97.77
2019-02-05T17:09:14.626Z,93.80
2019-02-05T17:10:49.000Z,97.70
2019-02-05T17:12:23.468Z,107.25
2019-02-05T17:13:57.913Z,113.83
2019-02-05T17:15:32.289Z,123.37
2019-02-05T17:17:06.667Z,134.73
2019-02-05T17:18:41.086Z,146.00
2019-02-05T17:20:21.288Z,125.00
2019-02-05T17:21:55.665Z,136.52
2019-02-05T17:23:30.039Z,130.20
2019-02-05T17:25:06.784Z,206.95
2019-02-05T17:26:42.673Z,214.70
2019-02-05T17:28:17.044Z,188.67
2019-02-05T17:29:52.931Z,167.80
2019-02-05T17:31:27.780Z,202.33
2019-02-05T17:33:02.278Z,177.33
2019-02-05T17:34:36.657Z,168.23
2019-02-05T17:36:11.036Z,162.17
2019-02-05T17:37:45.420Z,142.03
2019-02-05T17:39:19.785Z,130.13
2019-02-05T17:40:54.684Z,132.33
2019-02-05T17:42:29.333Z,150.57
2019-02-05T17:44:04.055Z,147.37
2019-02-05T17:45:40.235Z,176.00
2019-02-05T17:47:14.605Z,166.37
2019-02-05T17:48:49.013Z,164.30
2019-02-05T17:50:23.397Z,146.07
2019-02-05T17:51:57.770Z,156.73
2019-02-05T17:53:32.146Z,141.82
2019-02-05T17:55:09.671Z,137.20
2019-02-05T17:56:44.350Z,188.10
2019-02-05T17:58:18.825Z,174.50
2019-02-05T17:59:53.640Z,186.80
2019-02-05T18:01:29.849Z,169.47
2019-02-05T18:03:04.489Z,183.97
2019-02-05T18:04:38.932Z,177.83
2019-02-05T18:06:13.323Z,172.30
2019-02-05T18:07:47.825Z,215.12
2019-02-05T18:09:22.508Z,199.90
2019-02-05T18:10:56.892Z,192.93
2019-02-05T18:12:31.296Z,208.03
2019-02-05T18:14:05.685Z,214.75
2019-02-05T18:15:41.788Z,213.47
2019-02-05T18:17:16.201Z,208.40
2019-02-05T18:18:50.590Z,250.72
2019-02-05T18:20:25.123Z,252.43
2019-02-05T18:21:59.830Z,269.25
2019-02-05T18:23:34.217Z,272.27
2019-02-05T18:25:11.548Z,277.70
2019-02-05T18:26:47.344Z,293.43
2019-02-05T18:28:21.672Z,242.70
2019-02-05T18:29:57.557Z,227.38
2019-02-05T18:31:31.932Z,224.17
2019-02-05T18:33:07.045Z,241.65
2019-02-05T18:34:41.465Z,233.97
2019-02-05T18:36:15.856Z,230.65
2019-02-05T18:37:50.227Z,222.23
2019-02-05T18:39:24.601Z,271.50
2019-02-05T18:40:58.981Z,266.95
2019-02-05T18:42:33.366Z,270.05
2019-02-05T18:44:07.737Z,262.12
2019-02-05T18:45:43.621Z,276.80
2019-02-05T18:47:18.114Z,282.20
2019-02-05T18:48:52.505Z,274.88
2019-02-05T18:50:49.550Z,271.68
2019-02-05T18:52:23.953Z,261.92
2019-02-05T18:53:58.328Z,285.05
2019-02-05T18:55:35.782Z,269.52
2019-02-05T18:57:10.158Z,267.93
2019-02-05T18:58:44.988Z,255.22
2019-02-05T19:00:27.630Z,231.40
2019-02-05T19:02:02.025Z,196.65
2019-02-05T19:03:36.405Z,186.43
2019-02-05T19:05:11.441Z,180.75
2019-02-05T19:06:46.232Z,169.93
2019-02-05T19:08:20.610Z,164.25
2019-02-05T19:09:55.070Z,160.52
2019-02-05T19:11:29.445Z,154.03
2019-02-05T19:13:03.828Z,145.30
2019-02-05T19:14:38.229Z,138.43
2019-02-05T19:16:12.604Z,135.50
2019-02-05T19:17:47.056Z,122.47
2019-02-05T19:19:21.447Z,130.47
2019-02-05T19:20:55.830Z,126.18
2019-02-05T19:22:30.377Z,125.72
2019-02-05T19:24:06.963Z,118.20
2019-02-05T19:25:43.049Z,110.83
2019-02-05T19:27:17.442Z,116.17
2019-02-05T19:28:51.817Z,120.28
2019-02-05T19:30:27.832Z,125.10
2019-02-05T19:32:02.620Z,116.33
2019-02-05T19:33:37.010Z,117.42
2019-02-05T19:35:11.385Z,118.65
2019-02-05T19:36:45.756Z,122.80
2019-02-05T19:38:20.697Z,125.57
2019-02-05T19:39:55.089Z,126.07
2019-02-05T19:41:29.469Z,119.72
2019-02-05T19:43:03.854Z,126.67
2019-02-05T19:44:39.819Z,123.38
2019-02-05T19:46:15.830Z,122.47
2019-02-05T19:47:50.367Z,127.10
2019-02-05T19:49:26.097Z,131.27
2019-02-05T19:51:00.471Z,125.80
2019-02-05T19:52:34.905Z,122.57
2019-02-05T19:54:09.306Z,118.53
2019-02-05T19:55:43.768Z,112.67
2019-02-05T19:57:19.761Z,109.53
2019-02-05T19:58:54.525Z,99.83
2019-02-05T20:00:28.896Z,92.73
2019-02-05T20:02:03.270Z,94.93
2019-02-05T20:03:39.029Z,92.77
2019-02-05T20:05:15.089Z,95.37
2019-02-05T20:06:49.460Z,88.30
2019-02-05T20:08:26.668Z,89.73
2019-02-05T20:09:59.830Z,85.10
2019-02-05T20:11:36.041Z,84.67
2019-02-05T20:13:11.087Z,80.50
2019-02-05T20:14:45.670Z,81.47
2019-02-05T20:16:20.036Z,78.70
2019-02-05T20:17:54.444Z,79.93
2019-02-05T20:19:28.749Z,82.90
2019-02-05T20:21:04.629Z,80.63
2019-02-05T20:22:39.001Z,76.27
2019-02-05T20:24:13.869Z,77.50
2019-02-05T20:25:48.229Z,72.80
2019-02-05T20:27:22.617Z,73.97
2019-02-05T20:28:56.985Z,70.57